Time;durP1;ratioP1;P1;durP2;ratioP2;P2;SDS_P1;SDS_P2;PMS_P1;PMS_P2;Temp;Humidity;BMP_temperature;BMP_pressure;BME280_temperature;BME280_humidity;BME280_pressure;Samples;Min_cycle;Max_cycle;Signal;HPM_P1;HPM_P2
2023/02/11 00:01:07;;;;;;;18.27;6.53;;;;;;;;;;4976878;28;20806;-78
2023/02/11 00:03:33;;;;;;;18.53;6.97;;;;;;;;;;4994584;28;20260;-79
2023/02/11 00:05:59;;;;;;;24.80;7.87;;;;;;;;;;4995308;28;20469;-79
2023/02/11 00:08:25;;;;;;;21.93;7.40;;;;;;;;;;4993481;28;20325;-80
2023/02/11 00:10:51;;;;;;;19.10;6.73;;;;;;;;;;4975491;28;20527;-79
2023/02/11 00:13:16;;;;;;;22.03;7.80;;;;;;;;;;4993129;28;20639;-79
2023/02/11 00:15:43;;;;;;;20.63;7.63;;;;;;;;;;4992387;28;20475;-79
2023/02/11 00:18:09;;;;;;;17.03;7.90;;;;;;;;;;4992718;28;20374;-79
2023/02/11 00:20:34;;;;;;;20.00;7.50;;;;;;;;;;4993146;28;20479;-79
2023/02/11 00:22:59;;;;;;;20.20;7.60;;;;;;;;;;4992728;28;20186;-79
2023/02/11 00:25:27;;;;;;;22.23;6.90;;;;;;;;;;4988456;28;20665;-79
2023/02/11 00:27:52;;;;;;;20.67;7.50;;;;;;;;;;4991774;28;20197;-79
2023/02/11 00:30:18;;;;;;;24.00;8.40;;;;;;;;;;4990752;28;20413;-79
2023/02/11 00:32:43;;;;;;;21.87;9.07;;;;;;;;;;4993150;28;20173;-79
2023/02/11 00:35:11;;;;;;;17.10;7.20;;;;;;;;;;4993114;28;20213;-78
2023/02/11 00:37:36;;;;;;;18.83;7.50;;;;;;;;;;4992344;28;20212;-79
2023/02/11 00:40:03;;;;;;;22.97;7.20;;;;;;;;;;4993540;28;20405;-80
2023/02/11 00:42:28;;;;;;;15.73;7.73;;;;;;;;;;4994644;28;20245;-79
2023/02/11 00:44:56;;;;;;;30.10;9.13;;;;;;;;;;4995663;28;20412;-79
2023/02/11 00:47:21;;;;;;;21.13;7.50;;;;;;;;;;4991192;28;20214;-79
2023/02/11 00:49:47;;;;;;;18.40;7.70;;;;;;;;;;4991599;28;20448;-79
2023/02/11 00:52:14;;;;;;;18.10;7.50;;;;;;;;;;4985164;28;20198;-78
2023/02/11 00:54:39;;;;;;;16.10;7.90;;;;;;;;;;4993019;28;20174;-79
2023/02/11 00:57:05;;;;;;;16.93;7.80;;;;;;;;;;4993776;28;20957;-78
2023/02/11 00:59:33;;;;;;;15.47;7.33;;;;;;;;;;4993132;28;20202;-79
2023/02/11 01:01:58;;;;;;;18.97;8.77;;;;;;;;;;4991238;28;20226;-78
2023/02/11 01:04:23;;;;;;;23.83;7.63;;;;;;;;;;4984204;28;20500;-79
2023/02/11 01:06:48;;;;;;;19.87;7.63;;;;;;;;;;4992003;28;20503;-79
2023/02/11 01:09:14;;;;;;;26.13;8.93;;;;;;;;;;4989959;28;20272;-78
2023/02/11 01:11:39;;;;;;;22.13;7.77;;;;;;;;;;4993292;28;20193;-79
2023/02/11 01:14:07;;;;;;;23.73;7.83;;;;;;;;;;4991226;28;20177;-79
2023/02/11 01:16:32;;;;;;;18.90;8.33;;;;;;;;;;4984954;28;20667;-79
2023/02/11 01:18:57;;;;;;;42.77;8.73;;;;;;;;;;4973563;28;20421;-80
2023/02/11 01:21:23;;;;;;;21.00;7.63;;;;;;;;;;4989232;28;20193;-79
2023/02/11 01:23:48;;;;;;;13.43;7.13;;;;;;;;;;4991514;28;20170;-79
2023/02/11 01:26:16;;;;;;;21.97;7.73;;;;;;;;;;4982460;28;20182;-79
2023/02/11 01:28:41;;;;;;;23.83;8.40;;;;;;;;;;4988383;28;20232;-78
2023/02/11 01:31:06;;;;;;;35.07;8.70;;;;;;;;;;4989378;28;20882;-79
2023/02/11 01:33:32;;;;;;;25.70;9.13;;;;;;;;;;4989829;28;20643;-79
2023/02/11 01:36:04;;;;;;;21.10;8.73;;;;;;;;;;4992116;28;20315;-79
2023/02/11 01:38:30;;;;;;;20.90;9.93;;;;;;;;;;4991600;28;20170;-79
2023/02/11 01:40:56;;;;;;;16.00;7.30;;;;;;;;;;4990915;28;20444;-79
2023/02/11 01:43:23;;;;;;;23.57;8.97;;;;;;;;;;4988944;28;20185;-78
2023/02/11 01:45:54;;;;;;;20.00;8.50;;;;;;;;;;4987914;28;20409;-79
2023/02/11 01:48:21;;;;;;;16.00;9.07;;;;;;;;;;4990010;28;20409;-79
2023/02/11 01:50:48;;;;;;;19.90;8.87;;;;;;;;;;4990268;28;20427;-80
2023/02/11 01:58:44;;;;;;;21.70;8.67;;;;;;;;;;4989740;28;20420;-78
2023/02/11 02:01:11;;;;;;;25.17;9.50;;;;;;;;;;4990976;28;20421;-79
2023/02/11 02:03:38;;;;;;;26.00;9.33;;;;;;;;;;4990688;28;20416;-79
2023/02/11 02:06:13;;;;;;;20.13;9.03;;;;;;;;;;4989756;28;20413;-79
2023/02/11 02:08:45;;;;;;;17.40;8.07;;;;;;;;;;4989197;28;20439;-78
2023/02/11 02:11:10;;;;;;;22.10;9.00;;;;;;;;;;4990736;28;20440;-79
2023/02/11 02:13:35;;;;;;;18.03;8.43;;;;;;;;;;4989853;28;20416;-79
2023/02/11 02:16:02;;;;;;;21.10;8.77;;;;;;;;;;4990466;28;20193;-79
2023/02/11 02:18:43;;;;;;;23.47;9.70;;;;;;;;;;4990380;28;20261;-79
2023/02/11 02:21:27;;;;;;;18.23;8.93;;;;;;;;;;4991281;28;20478;-79
2023/02/11 02:23:55;;;;;;;20.80;9.27;;;;;;;;;;4989737;28;20495;-78
2023/02/11 02:26:46;;;;;;;21.27;10.20;;;;;;;;;;4989805;28;20877;-79
2023/02/11 02:29:30;;;;;;;27.27;11.47;;;;;;;;;;4952136;28;20508;-78
2023/02/11 02:32:14;;;;;;;21.23;8.93;;;;;;;;;;4989997;28;20456;-79
2023/02/11 02:34:54;;;;;;;30.87;12.03;;;;;;;;;;4992319;28;20428;-79
2023/02/11 02:37:34;;;;;;;27.70;10.17;;;;;;;;;;4993032;28;20448;-78
2023/02/11 02:40:02;;;;;;;24.73;10.53;;;;;;;;;;4992418;28;20421;-78
2023/02/11 02:42:28;;;;;;;20.10;10.30;;;;;;;;;;4975581;28;20806;-79
2023/02/11 02:44:54;;;;;;;17.70;10.20;;;;;;;;;;4992917;28;20413;-77
2023/02/11 02:47:19;;;;;;;22.33;9.80;;;;;;;;;;4992747;28;20186;-78
2023/02/11 02:49:45;;;;;;;22.50;10.10;;;;;;;;;;4975657;28;20429;-79
2023/02/11 02:52:13;;;;;;;24.70;10.50;;;;;;;;;;4993001;28;20233;-78
2023/02/11 02:54:54;;;;;;;21.20;10.00;;;;;;;;;;4993143;28;20178;-78
2023/02/11 02:57:20;;;;;;;23.47;10.80;;;;;;;;;;4992461;28;20957;-78
2023/02/11 02:59:54;;;;;;;21.13;10.97;;;;;;;;;;4992884;28;20428;-78
2023/02/11 03:02:20;;;;;;;28.73;12.87;;;;;;;;;;4992573;28;20197;-78
2023/02/11 03:04:58;;;;;;;20.97;11.33;;;;;;;;;;4992234;28;20416;-79
2023/02/11 03:07:29;;;;;;;21.50;11.50;;;;;;;;;;4992157;28;20464;-79
2023/02/11 03:10:01;;;;;;;21.73;11.60;;;;;;;;;;4991710;28;20499;-78
2023/02/11 03:12:27;;;;;;;24.70;12.43;;;;;;;;;;4989955;28;20863;-78
2023/02/11 03:14:53;;;;;;;22.10;13.03;;;;;;;;;;4989429;28;20412;-78
2023/02/11 03:17:18;;;;;;;21.40;12.17;;;;;;;;;;4990255;28;20949;-78
2023/02/11 03:19:45;;;;;;;26.43;11.10;;;;;;;;;;4988758;28;20634;-78
2023/02/11 03:22:15;;;;;;;22.00;11.10;;;;;;;;;;4989158;28;20272;-79
2023/02/11 03:24:40;;;;;;;30.23;11.70;;;;;;;;;;4989023;28;20413;-78
2023/02/11 03:27:09;;;;;;;31.90;12.77;;;;;;;;;;4990148;28;20440;-78
2023/02/11 03:29:50;;;;;;;21.50;12.67;;;;;;;;;;4989558;28;20663;-78
2023/02/11 03:32:38;;;;;;;26.90;13.20;;;;;;;;;;4988698;28;20452;-79
2023/02/11 03:35:10;;;;;;;19.97;11.53;;;;;;;;;;4979188;28;20428;-78
2023/02/11 03:37:39;;;;;;;29.10;12.47;;;;;;;;;;4987961;28;20461;-78
2023/02/11 03:40:13;;;;;;;24.60;12.20;;;;;;;;;;4990046;28;20404;-79
2023/02/11 03:42:44;;;;;;;28.33;12.07;;;;;;;;;;4989447;28;20429;-78
2023/02/11 03:45:11;;;;;;;28.90;13.00;;;;;;;;;;4989142;28;20471;-79
2023/02/11 03:47:38;;;;;;;21.33;12.37;;;;;;;;;;4988575;28;20989;-79
2023/02/11 03:50:06;;;;;;;25.80;13.20;;;;;;;;;;4989591;28;20446;-78
2023/02/11 03:52:32;;;;;;;23.23;11.90;;;;;;;;;;4972342;28;20423;-78
2023/02/11 03:54:59;;;;;;;18.57;12.07;;;;;;;;;;4989481;28;20412;-78
2023/02/11 03:57:24;;;;;;;25.50;13.63;;;;;;;;;;4989561;28;20488;-78
2023/02/11 03:59:52;;;;;;;29.67;12.90;;;;;;;;;;4989553;28;20417;-78
2023/02/11 04:02:17;;;;;;;24.57;13.70;;;;;;;;;;4989671;28;20232;-79
2023/02/11 04:04:43;;;;;;;25.10;13.80;;;;;;;;;;4988738;28;20440;-78
2023/02/11 04:07:10;;;;;;;21.27;12.57;;;;;;;;;;4993079;28;20224;-79
2023/02/11 04:09:35;;;;;;;23.07;13.57;;;;;;;;;;4992059;28;20658;-78
2023/02/11 04:12:01;;;;;;;24.57;13.50;;;;;;;;;;4992585;28;20440;-78
2023/02/11 04:14:26;;;;;;;28.60;14.20;;;;;;;;;;4993237;28;20174;-78
2023/02/11 04:16:52;;;;;;;25.90;14.07;;;;;;;;;;4992656;28;20682;-78
2023/02/11 04:19:17;;;;;;;26.20;13.20;;;;;;;;;;4992663;28;20220;-79
2023/02/11 04:21:42;;;;;;;26.20;14.67;;;;;;;;;;4993319;28;20201;-78
2023/02/11 04:24:07;;;;;;;21.77;13.10;;;;;;;;;;4991870;28;20173;-78
2023/02/11 04:26:33;;;;;;;23.20;13.30;;;;;;;;;;4993871;28;20312;-79
2023/02/11 04:28:58;;;;;;;22.37;12.90;;;;;;;;;;4994163;28;20185;-78
2023/02/11 04:31:23;;;;;;;27.50;14.40;;;;;;;;;;4994585;28;20213;-79
2023/02/11 04:33:49;;;;;;;21.70;13.53;;;;;;;;;;4994885;28;20184;-78
2023/02/11 04:36:16;;;;;;;21.23;13.70;;;;;;;;;;4993462;28;20193;-78
2023/02/11 04:38:41;;;;;;;22.87;14.17;;;;;;;;;;4994683;28;20588;-78
2023/02/11 04:41:07;;;;;;;24.00;13.20;;;;;;;;;;4992686;28;20441;-78
2023/02/11 04:43:32;;;;;;;22.40;13.87;;;;;;;;;;4974404;28;20232;-79
2023/02/11 04:45:57;;;;;;;22.27;13.00;;;;;;;;;;4992742;28;20209;-79
2023/02/11 04:48:23;;;;;;;25.53;14.03;;;;;;;;;;4991545;28;20564;-78
2023/02/11 04:50:48;;;;;;;22.97;14.50;;;;;;;;;;4992416;28;20197;-78
2023/02/11 04:53:13;;;;;;;21.60;13.80;;;;;;;;;;4992701;28;20181;-78
2023/02/11 04:55:39;;;;;;;24.40;13.80;;;;;;;;;;4992052;28;20178;-78
2023/02/11 04:58:06;;;;;;;22.00;13.77;;;;;;;;;;4990564;28;20553;-79
2023/02/11 05:00:32;;;;;;;24.83;14.33;;;;;;;;;;4989965;28;20193;-78
2023/02/11 05:02:57;;;;;;;23.80;14.13;;;;;;;;;;4990961;28;20428;-79
2023/02/11 05:05:22;;;;;;;19.47;13.03;;;;;;;;;;4992265;28;20185;-78
2023/02/11 05:07:48;;;;;;;20.10;12.63;;;;;;;;;;4989466;28;20174;-79
2023/02/11 05:10:13;;;;;;;24.67;14.13;;;;;;;;;;4991025;28;20186;-78
2023/02/11 05:12:38;;;;;;;27.77;14.83;;;;;;;;;;4992342;28;20185;-79
2023/02/11 05:15:04;;;;;;;21.97;13.00;;;;;;;;;;4992343;28;20186;-79
2023/02/11 05:17:29;;;;;;;21.87;14.20;;;;;;;;;;4991638;28;20271;-79
2023/02/11 05:19:57;;;;;;;21.60;13.90;;;;;;;;;;4992175;28;20205;-78
2023/02/11 05:22:22;;;;;;;23.43;14.03;;;;;;;;;;4991325;28;20309;-78
2023/02/11 05:24:47;;;;;;;25.17;14.10;;;;;;;;;;4991651;28;20897;-78
2023/02/11 05:27:12;;;;;;;24.23;15.07;;;;;;;;;;4988775;28;20190;-79
2023/02/11 05:29:38;;;;;;;23.70;13.90;;;;;;;;;;4991343;28;20229;-79
2023/02/11 05:32:03;;;;;;;25.07;13.50;;;;;;;;;;4990096;28;20568;-79
2023/02/11 05:34:28;;;;;;;22.93;12.80;;;;;;;;;;4993761;28;20185;-79
2023/02/11 05:36:54;;;;;;;22.07;13.27;;;;;;;;;;4992159;28;20190;-79
2023/02/11 05:39:19;;;;;;;21.17;13.47;;;;;;;;;;4991211;28;20589;-79
2023/02/11 05:41:44;;;;;;;20.03;13.83;;;;;;;;;;4992464;28;20198;-79
2023/02/11 05:44:10;;;;;;;20.63;13.67;;;;;;;;;;4991946;28;20620;-79
2023/02/11 05:46:35;;;;;;;23.23;13.50;;;;;;;;;;4991352;28;20589;-79
2023/02/11 05:49:00;;;;;;;18.87;13.37;;;;;;;;;;4991715;28;20941;-79
2023/02/11 05:51:26;;;;;;;26.13;13.90;;;;;;;;;;4992345;28;20580;-79
2023/02/11 05:53:51;;;;;;;19.80;12.77;;;;;;;;;;4991456;28;20235;-79
2023/02/11 05:56:17;;;;;;;23.97;14.30;;;;;;;;;;4991939;28;20232;-78
2023/02/11 05:58:44;;;;;;;20.37;13.17;;;;;;;;;;4990612;28;20619;-79
2023/02/11 06:01:09;;;;;;;21.33;13.30;;;;;;;;;;4992495;28;20608;-79
2023/02/11 06:03:35;;;;;;;22.37;12.07;;;;;;;;;;4973870;28;20436;-79
2023/02/11 06:06:00;;;;;;;21.10;13.23;;;;;;;;;;4991915;28;20200;-79
2023/02/11 06:08:25;;;;;;;26.80;13.47;;;;;;;;;;4990766;28;20204;-79
2023/02/11 06:10:53;;;;;;;24.70;12.70;;;;;;;;;;4988474;28;20260;-79
2023/02/11 06:13:18;;;;;;;23.90;12.93;;;;;;;;;;4987790;28;20265;-79
2023/02/11 06:15:54;;;;;;;25.60;13.20;;;;;;;;;;4989729;28;20497;-79
2023/02/11 06:18:19;;;;;;;17.63;11.60;;;;;;;;;;4991238;28;20182;-79
2023/02/11 06:20:44;;;;;;;32.67;13.10;;;;;;;;;;4975100;28;20500;-79
2023/02/11 06:23:09;;;;;;;19.37;12.37;;;;;;;;;;4991997;28;20641;-79
2023/02/11 06:25:35;;;;;;;25.13;13.57;;;;;;;;;;4992392;28;20678;-79
2023/02/11 06:28:01;;;;;;;18.60;12.13;;;;;;;;;;4991431;28;20587;-79
2023/02/11 06:30:26;;;;;;;20.50;12.17;;;;;;;;;;4991768;28;20202;-79
2023/02/11 06:32:51;;;;;;;20.07;12.00;;;;;;;;;;4991902;28;20220;-79
2023/02/11 06:35:16;;;;;;;27.47;12.87;;;;;;;;;;4991885;28;20722;-79
2023/02/11 06:37:42;;;;;;;18.30;12.30;;;;;;;;;;4990711;28;20197;-79
2023/02/11 06:40:08;;;;;;;28.17;12.87;;;;;;;;;;4991374;28;20200;-79
2023/02/11 06:42:37;;;;;;;23.00;13.07;;;;;;;;;;4987590;28;20170;-78
2023/02/11 06:45:04;;;;;;;20.70;11.73;;;;;;;;;;4985896;28;20189;-78
2023/02/11 06:47:30;;;;;;;25.17;11.23;;;;;;;;;;4990920;28;20911;-79
2023/02/11 06:49:56;;;;;;;19.67;12.30;;;;;;;;;;4990879;28;20452;-79
2023/02/11 06:52:21;;;;;;;19.20;11.30;;;;;;;;;;4989539;28;20817;-79
2023/02/11 06:54:47;;;;;;;25.43;13.10;;;;;;;;;;4992147;28;20190;-79
2023/02/11 06:57:14;;;;;;;18.10;11.53;;;;;;;;;;4989181;28;20569;-79
2023/02/11 06:59:40;;;;;;;21.60;10.87;;;;;;;;;;4989140;28;20174;-79
2023/02/11 07:02:05;;;;;;;23.13;12.03;;;;;;;;;;4987561;28;20433;-79
2023/02/11 07:04:31;;;;;;;22.23;10.87;;;;;;;;;;4988248;28;20256;-79
2023/02/11 07:06:56;;;;;;;18.60;12.20;;;;;;;;;;4988301;28;20543;-80
2023/02/11 07:09:23;;;;;;;22.57;11.00;;;;;;;;;;4988029;28;20178;-79
2023/02/11 07:11:51;;;;;;;18.17;11.20;;;;;;;;;;4987819;28;20296;-79
2023/02/11 07:14:16;;;;;;;26.07;11.47;;;;;;;;;;4988016;28;20456;-79
2023/02/11 07:16:42;;;;;;;20.43;10.90;;;;;;;;;;4988843;28;20977;-79
2023/02/11 07:19:10;;;;;;;21.77;10.53;;;;;;;;;;4989023;28;20181;-79
2023/02/11 07:21:35;;;;;;;19.03;10.50;;;;;;;;;;4988627;28;20651;-79
2023/02/11 07:24:00;;;;;;;20.70;11.37;;;;;;;;;;4986294;28;20471;-79
2023/02/11 07:26:26;;;;;;;21.50;12.20;;;;;;;;;;4988332;28;20247;-80
2023/02/11 07:28:52;;;;;;;17.87;10.87;;;;;;;;;;4987914;28;20181;-79
2023/02/11 07:31:22;;;;;;;16.83;10.43;;;;;;;;;;4971243;28;20259;-79
2023/02/11 07:33:48;;;;;;;21.20;12.20;;;;;;;;;;4991705;28;20193;-79
2023/02/11 07:36:14;;;;;;;19.03;10.90;;;;;;;;;;4989089;28;20473;-79
2023/02/11 07:38:40;;;;;;;22.10;10.63;;;;;;;;;;4990529;28;20413;-80
2023/02/11 07:41:06;;;;;;;21.70;12.00;;;;;;;;;;4992605;28;20697;-80
2023/02/11 07:43:32;;;;;;;19.77;10.03;;;;;;;;;;4994396;28;20239;-80
2023/02/11 07:45:57;;;;;;;19.77;10.23;;;;;;;;;;4995017;28;20409;-79
2023/02/11 07:48:23;;;;;;;22.07;10.80;;;;;;;;;;5005097;23;21036;-72
2023/02/11 07:50:48;;;;;;;19.23;10.33;;;;;;;;;;5010278;28;20654;-70
2023/02/11 07:55:42;;;;;;;21.57;10.67;;;;;;;;;;4952493;28;20289;-70
2023/02/11 07:58:10;;;;;;;18.90;11.20;;;;;;;;;;4953425;29;20474;-70
2023/02/11 08:00:35;;;;;;;24.07;10.20;;;;;;;;;;4953431;29;20175;-70
2023/02/11 08:03:01;;;;;;;24.43;10.97;;;;;;;;;;4953959;29;20427;-70
2023/02/11 08:05:26;;;;;;;20.93;11.20;;;;;;;;;;4954322;29;20191;-70
2023/02/11 08:07:52;;;;;;;15.57;10.27;;;;;;;;;;4953438;29;20171;-71
2023/02/11 08:10:17;;;;;;;20.03;9.50;;;;;;;;;;4954162;29;20676;-70
2023/02/11 08:12:43;;;;;;;20.53;10.40;;;;;;;;;;4954202;29;20422;-70
2023/02/11 08:15:08;;;;;;;18.00;10.07;;;;;;;;;;4954541;28;20286;-70
2023/02/11 08:17:34;;;;;;;20.47;9.67;;;;;;;;;;4952252;29;20203;-70
2023/02/11 08:19:59;;;;;;;17.17;10.47;;;;;;;;;;4944900;29;20186;-70
2023/02/11 08:22:24;;;;;;;21.87;10.20;;;;;;;;;;4950828;28;20186;-70
2023/02/11 08:24:50;;;;;;;19.13;10.90;;;;;;;;;;4953974;28;20669;-70
2023/02/11 08:27:15;;;;;;;22.03;10.57;;;;;;;;;;4953423;28;20177;-70
2023/02/11 08:29:40;;;;;;;14.80;9.13;;;;;;;;;;4944251;29;20183;-70
2023/02/11 08:32:05;;;;;;;16.63;9.67;;;;;;;;;;4942420;29;20183;-71
2023/02/11 08:34:31;;;;;;;22.40;9.50;;;;;;;;;;4954244;29;20246;-70
2023/02/11 08:36:56;;;;;;;23.77;9.40;;;;;;;;;;4954163;29;20217;-70
2023/02/11 08:39:22;;;;;;;16.60;8.30;;;;;;;;;;4939111;29;20182;-70
2023/02/11 08:41:48;;;;;;;21.40;8.93;;;;;;;;;;4954018;29;20552;-70
2023/02/11 08:44:13;;;;;;;19.00;8.60;;;;;;;;;;4953513;28;20290;-70
2023/02/11 08:46:39;;;;;;;17.57;8.33;;;;;;;;;;4954246;28;20501;-70
2023/02/11 08:49:04;;;;;;;18.03;7.87;;;;;;;;;;4951475;29;20186;-70
2023/02/11 08:51:30;;;;;;;18.40;7.87;;;;;;;;;;4941882;29;20282;-70
2023/02/11 08:53:56;;;;;;;16.57;6.97;;;;;;;;;;4949710;28;20727;-70
2023/02/11 08:56:24;;;;;;;22.03;7.93;;;;;;;;;;4953136;29;20462;-70
2023/02/11 08:58:50;;;;;;;17.70;7.90;;;;;;;;;;4950548;29;20637;-70
2023/02/11 09:01:20;;;;;;;26.33;7.70;;;;;;;;;;4952606;29;20557;-70
2023/02/11 09:03:46;;;;;;;22.03;7.97;;;;;;;;;;4952732;29;20194;-70
2023/02/11 09:06:12;;;;;;;15.10;7.33;;;;;;;;;;4953076;29;20958;-70
2023/02/11 09:08:39;;;;;;;17.87;6.93;;;;;;;;;;4941375;29;20183;-70
2023/02/11 09:11:04;;;;;;;18.50;6.67;;;;;;;;;;4953006;29;20415;-70
2023/02/11 09:13:30;;;;;;;17.43;7.50;;;;;;;;;;4951333;28;20805;-70
2023/02/11 09:15:56;;;;;;;16.00;6.80;;;;;;;;;;4953668;29;20179;-70
2023/02/11 09:18:21;;;;;;;21.97;7.97;;;;;;;;;;4941926;29;20179;-70
2023/02/11 09:20:46;;;;;;;23.90;8.07;;;;;;;;;;4943275;29;20179;-70
2023/02/11 09:25:40;;;;;;;13.03;6.30;;;;;;;;;;5000387;28;20336;-70
2023/02/11 09:28:05;;;;;;;18.30;7.83;;;;;;;;;;4999701;28;20885;-70
2023/02/11 09:30:31;;;;;;;15.97;7.07;;;;;;;;;;5000061;28;20177;-70
2023/02/11 09:32:56;;;;;;;22.33;7.50;;;;;;;;;;4999779;28;20256;-70
2023/02/11 09:35:21;;;;;;;14.03;6.30;;;;;;;;;;4996074;28;20196;-70
2023/02/11 09:37:46;;;;;;;15.50;6.40;;;;;;;;;;4999484;28;20206;-70
2023/02/11 09:40:13;;;;;;;19.43;7.97;;;;;;;;;;4999239;28;20189;-70
2023/02/11 09:42:51;;;;;;;28.63;7.23;;;;;;;;;;4999721;28;20219;-70
2023/02/11 09:45:27;;;;;;;16.60;6.93;;;;;;;;;;5000243;28;20470;-70
2023/02/11 09:47:55;;;;;;;14.83;6.10;;;;;;;;;;4999112;28;20413;-70
2023/02/11 09:50:41;;;;;;;27.00;7.87;;;;;;;;;;5000202;28;20412;-70
2023/02/11 09:53:32;;;;;;;26.97;7.30;;;;;;;;;;4999756;28;20482;-70
2023/02/11 09:56:01;;;;;;;16.73;6.70;;;;;;;;;;4995943;28;20958;-70
2023/02/11 09:58:28;;;;;;;22.70;7.50;;;;;;;;;;4998200;28;20424;-70
2023/02/11 10:00:59;;;;;;;16.87;6.43;;;;;;;;;;4999179;28;20439;-70
2023/02/11 10:03:25;;;;;;;24.37;6.73;;;;;;;;;;4995874;28;20511;-70
2023/02/11 10:05:50;;;;;;;17.30;6.47;;;;;;;;;;5000413;28;20409;-70
2023/02/11 10:08:24;;;;;;;21.60;5.80;;;;;;;;;;4998993;28;20197;-70
2023/02/11 10:10:59;;;;;;;23.83;5.70;;;;;;;;;;4997518;28;20189;-70
2023/02/11 10:13:30;;;;;;;17.77;6.17;;;;;;;;;;4997405;28;20452;-70
2023/02/11 10:16:14;;;;;;;16.10;6.50;;;;;;;;;;4995968;28;20424;-70
2023/02/11 10:18:54;;;;;;;20.90;5.87;;;;;;;;;;4998934;28;20519;-70
2023/02/11 10:21:40;;;;;;;22.70;7.33;;;;;;;;;;4997769;28;20412;-70
2023/02/11 10:24:10;;;;;;;16.67;6.40;;;;;;;;;;4998348;28;20466;-70
2023/02/11 10:26:35;;;;;;;24.20;6.70;;;;;;;;;;4996326;28;20901;-70
2023/02/11 10:29:04;;;;;;;20.23;5.97;;;;;;;;;;4998102;28;20428;-70
2023/02/11 10:31:40;;;;;;;19.83;5.57;;;;;;;;;;4999075;28;20424;-70
2023/02/11 10:34:08;;;;;;;17.93;6.03;;;;;;;;;;4997945;28;20985;-70
2023/02/11 10:36:35;;;;;;;19.50;6.20;;;;;;;;;;4996216;28;20460;-70
2023/02/11 10:39:01;;;;;;;21.60;5.77;;;;;;;;;;4996163;28;20526;-70
2023/02/11 10:41:35;;;;;;;20.37;6.83;;;;;;;;;;4998018;28;20785;-70
2023/02/11 10:44:00;;;;;;;17.43;5.60;;;;;;;;;;5000061;28;20424;-70
2023/02/11 10:46:29;;;;;;;20.07;5.50;;;;;;;;;;4996352;28;20475;-70
2023/02/11 10:48:54;;;;;;;25.03;6.60;;;;;;;;;;4998287;28;20253;-70
2023/02/11 10:51:27;;;;;;;29.70;6.50;;;;;;;;;;4997017;28;20432;-70
2023/02/11 10:54:06;;;;;;;23.77;6.50;;;;;;;;;;4997765;28;20231;-70
2023/02/11 10:56:34;;;;;;;20.10;6.10;;;;;;;;;;4997637;28;20456;-70
2023/02/11 10:59:01;;;;;;;29.10;6.00;;;;;;;;;;4996946;28;20421;-70
2023/02/11 11:01:47;;;;;;;18.53;6.80;;;;;;;;;;4994708;28;20879;-70
2023/02/11 11:04:39;;;;;;;17.97;6.03;;;;;;;;;;4996918;28;20428;-70
2023/02/11 11:07:16;;;;;;;21.33;6.03;;;;;;;;;;4996214;28;20508;-70
2023/02/11 11:09:43;;;;;;;17.13;5.20;;;;;;;;;;4997893;28;20422;-70
2023/02/11 11:12:35;;;;;;;18.63;5.33;;;;;;;;;;4995976;28;20429;-70
2023/02/11 11:15:00;;;;;;;19.97;4.93;;;;;;;;;;4996093;28;20444;-71
2023/02/11 11:17:29;;;;;;;21.50;5.00;;;;;;;;;;4996125;28;20461;-70
2023/02/11 11:20:14;;;;;;;20.33;5.17;;;;;;;;;;5015930;28;20655;-70
2023/02/11 11:22:40;;;;;;;23.20;5.57;;;;;;;;;;4999549;28;21104;-70
2023/02/11 11:25:19;;;;;;;16.13;4.30;;;;;;;;;;5002951;28;20475;-70
2023/02/11 11:27:47;;;;;;;19.33;4.77;;;;;;;;;;5001723;28;20474;-70
2023/02/11 11:30:16;;;;;;;15.30;3.87;;;;;;;;;;4993921;28;20515;-70
2023/02/11 11:32:42;;;;;;;17.27;4.23;;;;;;;;;;5008656;28;20419;-70
2023/02/11 11:35:20;;;;;;;18.17;4.03;;;;;;;;;;5000593;28;20816;-70
2023/02/11 11:37:51;;;;;;;23.10;3.80;;;;;;;;;;5001763;28;20208;-70
2023/02/11 11:40:24;;;;;;;18.03;3.90;;;;;;;;;;5016621;28;20423;-70
2023/02/11 11:43:02;;;;;;;13.40;3.50;;;;;;;;;;4993598;28;20420;-70
2023/02/11 11:45:30;;;;;;;22.00;4.63;;;;;;;;;;5000303;28;20405;-70
2023/02/11 11:48:10;;;;;;;23.43;3.93;;;;;;;;;;5000383;28;20408;-70
2023/02/11 11:50:38;;;;;;;19.13;3.97;;;;;;;;;;5001662;28;20423;-70
2023/02/11 11:53:04;;;;;;;14.33;4.60;;;;;;;;;;5001649;28;20918;-70
2023/02/11 11:55:35;;;;;;;14.27;3.30;;;;;;;;;;5000702;28;20485;-70
2023/02/11 11:58:00;;;;;;;20.37;4.40;;;;;;;;;;4996280;28;20212;-70
2023/02/11 12:00:41;;;;;;;24.67;4.83;;;;;;;;;;5000750;28;20809;-70
2023/02/11 12:03:15;;;;;;;17.03;4.30;;;;;;;;;;4998832;28;20189;-71
2023/02/11 12:05:45;;;;;;;18.43;3.37;;;;;;;;;;5000825;28;20760;-70
2023/02/11 12:08:30;;;;;;;11.97;3.87;;;;;;;;;;4997054;28;20456;-70
2023/02/11 12:10:58;;;;;;;14.23;4.27;;;;;;;;;;4998840;28;20838;-70
2023/02/11 12:13:32;;;;;;;24.67;4.77;;;;;;;;;;4999480;28;20475;-70
2023/02/11 12:16:11;;;;;;;23.63;3.83;;;;;;;;;;4999323;28;20451;-70
2023/02/11 12:18:41;;;;;;;20.63;4.73;;;;;;;;;;4998864;28;20514;-70
2023/02/11 12:21:18;;;;;;;16.97;3.20;;;;;;;;;;5000422;28;21107;-70
2023/02/11 12:23:57;;;;;;;21.63;5.13;;;;;;;;;;5000063;28;20443;-71
2023/02/11 12:26:26;;;;;;;20.77;5.17;;;;;;;;;;4997895;28;20957;-70
2023/02/11 12:29:00;;;;;;;15.77;4.13;;;;;;;;;;4999085;28;20412;-70
2023/02/11 12:31:49;;;;;;;18.03;3.33;;;;;;;;;;5000344;28;20423;-70
2023/02/11 12:34:20;;;;;;;12.30;3.07;;;;;;;;;;4981684;28;20507;-71
2023/02/11 12:36:59;;;;;;;21.77;4.30;;;;;;;;;;4998613;28;20460;-71
2023/02/11 12:39:25;;;;;;;16.37;3.80;;;;;;;;;;5015008;28;20408;-70
2023/02/11 12:45:06;;;;;;;19.27;3.57;;;;;;;;;;4999568;28;20204;-70
2023/02/11 12:47:37;;;;;;;20.67;4.20;;;;;;;;;;4999343;28;20905;-70
2023/02/11 12:50:07;;;;;;;16.00;3.70;;;;;;;;;;4997937;28;20425;-71
2023/02/11 12:52:47;;;;;;;14.67;3.77;;;;;;;;;;4996886;28;20433;-70
2023/02/11 12:55:21;;;;;;;25.67;5.53;;;;;;;;;;4996958;28;20448;-70
2023/02/11 12:57:47;;;;;;;20.57;5.37;;;;;;;;;;4995547;28;20567;-70
2023/02/11 13:00:13;;;;;;;19.77;4.73;;;;;;;;;;4997094;28;20436;-70
2023/02/11 13:02:57;;;;;;;22.23;4.40;;;;;;;;;;4998032;28;20804;-70
2023/02/11 13:05:25;;;;;;;16.33;3.20;;;;;;;;;;4994530;28;20216;-70
2023/02/11 13:07:53;;;;;;;17.73;5.00;;;;;;;;;;4995960;28;20436;-70
2023/02/11 13:10:47;;;;;;;14.83;3.40;;;;;;;;;;4997117;28;20437;-70
2023/02/11 13:13:33;;;;;;;15.83;3.80;;;;;;;;;;4976108;28;20447;-71
2023/02/11 13:16:09;;;;;;;20.43;4.20;;;;;;;;;;4991569;28;20444;-72
2023/02/11 13:19:04;;;;;;;18.20;3.60;;;;;;;;;;4990498;28;20469;-72
2023/02/11 13:21:37;;;;;;;16.20;5.10;;;;;;;;;;4958205;28;20426;-72
2023/02/11 13:24:10;;;;;;;12.57;3.70;;;;;;;;;;4991790;28;20461;-70
2023/02/11 13:26:50;;;;;;;25.40;4.10;;;;;;;;;;4988723;28;20436;-71
2023/02/11 13:29:39;;;;;;;20.07;3.77;;;;;;;;;;4991011;28;20424;-71
2023/02/11 13:32:06;;;;;;;21.83;3.73;;;;;;;;;;4982111;28;20456;-72
2023/02/11 13:34:40;;;;;;;12.63;3.20;;;;;;;;;;4987612;28;20443;-73
2023/02/11 13:37:17;;;;;;;14.70;3.73;;;;;;;;;;4996236;28;20510;-72
2023/02/11 13:39:54;;;;;;;21.87;4.00;;;;;;;;;;4990834;28;20447;-72
2023/02/11 13:42:20;;;;;;;19.47;3.60;;;;;;;;;;4987998;28;20423;-73
2023/02/11 13:44:45;;;;;;;14.90;3.87;;;;;;;;;;4990339;28;21023;-74
2023/02/11 13:47:21;;;;;;;20.77;4.70;;;;;;;;;;4981231;28;20452;-72
2023/02/11 13:49:50;;;;;;;17.73;4.47;;;;;;;;;;4990720;28;20654;-71
2023/02/11 13:52:26;;;;;;;25.47;3.93;;;;;;;;;;4997434;28;20796;-71
2023/02/11 13:54:53;;;;;;;23.40;4.27;;;;;;;;;;4993229;28;20452;-72
2023/02/11 13:57:18;;;;;;;21.80;4.93;;;;;;;;;;4990361;28;20847;-71
2023/02/11 13:59:45;;;;;;;18.50;3.53;;;;;;;;;;4994058;28;20413;-72
2023/02/11 14:10:51;;;;;;;18.77;3.90;;;;;;;;;;4989786;28;20780;-70
2023/02/11 14:13:25;;;;;;;25.20;4.67;;;;;;;;;;5000180;28;20435;-71
2023/02/11 14:16:02;;;;;;;15.53;5.53;;;;;;;;;;4985548;28;20436;-70
2023/02/11 14:18:34;;;;;;;19.93;5.70;;;;;;;;;;4991262;28;20464;-71
2023/02/11 14:21:13;;;;;;;14.33;2.90;;;;;;;;;;4983933;28;20483;-72
2023/02/11 14:23:38;;;;;;;17.47;6.10;;;;;;;;;;4989399;28;20459;-72
2023/02/11 14:26:23;;;;;;;18.50;4.00;;;;;;;;;;4993099;28;20433;-73
2023/02/11 14:28:58;;;;;;;15.90;3.67;;;;;;;;;;4990092;28;20197;-74
2023/02/11 14:31:37;;;;;;;19.33;4.30;;;;;;;;;;4990270;28;20505;-72
2023/02/11 14:34:02;;;;;;;18.57;4.00;;;;;;;;;;4985861;28;20457;-69
2023/02/11 14:36:48;;;;;;;16.67;3.30;;;;;;;;;;4986379;28;20467;-69
2023/02/11 14:39:13;;;;;;;12.10;3.30;;;;;;;;;;4985192;28;20244;-71
2023/02/11 14:41:40;;;;;;;18.50;3.80;;;;;;;;;;4989788;28;20843;-70
2023/02/11 14:44:11;;;;;;;23.47;4.07;;;;;;;;;;4984119;28;20197;-70
2023/02/11 14:46:36;;;;;;;22.47;4.00;;;;;;;;;;4985007;28;20444;-71
2023/02/11 14:49:03;;;;;;;23.10;4.10;;;;;;;;;;5008061;28;20433;-72
2023/02/11 14:51:30;;;;;;;16.57;3.53;;;;;;;;;;4988718;28;20184;-71
2023/02/11 14:53:58;;;;;;;21.90;3.50;;;;;;;;;;4988107;28;20452;-71
2023/02/11 14:56:29;;;;;;;30.93;3.87;;;;;;;;;;4993270;28;20441;-70